sensor_id;sensor_type;location;lat;lon;timestamp;P1;durP1;ratioP1;P2;durP2;ratioP2
74152;SDS011;62505;46.070;14.492;2023-05-01T00:00:48;2.83;;;1.80;;
74152;SDS011;62505;46.070;14.492;2023-05-01T00:03:15;2.38;;;1.77;;
74152;SDS011;62505;46.070;14.492;2023-05-01T00:05:43;2.85;;;1.88;;
74152;SDS011;62505;46.070;14.492;2023-05-01T00:08:10;1.70;;;1.60;;
74152;SDS011;62505;46.070;14.492;2023-05-01T00:10:38;1.95;;;1.75;;
74152;SDS011;62505;46.070;14.492;2023-05-01T00:13:05;2.20;;;2.00;;
74152;SDS011;62505;46.070;14.492;2023-05-01T00:15:33;1.73;;;1.63;;
74152;SDS011;62505;46.070;14.492;2023-05-01T00:18:00;2.38;;;2.05;;
74152;SDS011;62505;46.070;14.492;2023-05-01T00:20:27;2.00;;;1.80;;
74152;SDS011;62505;46.070;14.492;2023-05-01T00:22:55;2.08;;;1.80;;
74152;SDS011;62505;46.070;14.492;2023-05-01T00:25:22;2.30;;;1.88;;
74152;SDS011;62505;46.070;14.492;2023-05-01T00:27:50;2.40;;;2.20;;
74152;SDS011;62505;46.070;14.492;2023-05-01T00:30:17;2.40;;;1.92;;
74152;SDS011;62505;46.070;14.492;2023-05-01T00:32:44;2.08;;;1.88;;
74152;SDS011;62505;46.070;14.492;2023-05-01T00:35:11;2.20;;;2.00;;
74152;SDS011;62505;46.070;14.492;2023-05-01T00:37:38;2.15;;;1.63;;
74152;SDS011;62505;46.070;14.492;2023-05-01T00:40:05;1.77;;;1.52;;
74152;SDS011;62505;46.070;14.492;2023-05-01T00:42:33;2.28;;;1.90;;
74152;SDS011;62505;46.070;14.492;2023-05-01T00:45:02;2.38;;;1.75;;
74152;SDS011;62505;46.070;14.492;2023-05-01T00:47:30;2.10;;;1.90;;
74152;SDS011;62505;46.070;14.492;2023-05-01T00:49:58;2.10;;;1.90;;
74152;SDS011;62505;46.070;14.492;2023-05-01T00:52:25;2.08;;;1.88;;
74152;SDS011;62505;46.070;14.492;2023-05-01T00:54:52;2.10;;;1.90;;
74152;SDS011;62505;46.070;14.492;2023-05-01T00:57:20;2.30;;;2.10;;
74152;SDS011;62505;46.070;14.492;2023-05-01T00:59:47;2.25;;;1.80;;
74152;SDS011;62505;46.070;14.492;2023-05-01T01:02:15;2.03;;;1.88;;
74152;SDS011;62505;46.070;14.492;2023-05-01T01:04:43;2.17;;;1.90;;
74152;SDS011;62505;46.070;14.492;2023-05-01T01:07:14;2.97;;;2.08;;
74152;SDS011;62505;46.070;14.492;2023-05-01T01:09:48;2.25;;;1.83;;
74152;SDS011;62505;46.070;14.492;2023-05-01T01:12:25;2.33;;;1.90;;
74152;SDS011;62505;46.070;14.492;2023-05-01T01:14:57;2.17;;;1.88;;
74152;SDS011;62505;46.070;14.492;2023-05-01T01:17:34;2.17;;;1.70;;
74152;SDS011;62505;46.070;14.492;2023-05-01T01:20:18;2.20;;;2.00;;
74152;SDS011;62505;46.070;14.492;2023-05-01T01:23:00;1.80;;;1.70;;
74152;SDS011;62505;46.070;14.492;2023-05-01T01:25:58;2.38;;;1.88;;
74152;SDS011;62505;46.070;14.492;2023-05-01T01:31:31;2.28;;;2.00;;
74152;SDS011;62505;46.070;14.492;2023-05-01T01:34:08;2.28;;;1.88;;
74152;SDS011;62505;46.070;14.492;2023-05-01T01:36:42;2.40;;;2.20;;
74152;SDS011;62505;46.070;14.492;2023-05-01T01:39:20;2.22;;;1.83;;
74152;SDS011;62505;46.070;14.492;2023-05-01T01:41:52;1.90;;;1.70;;
74152;SDS011;62505;46.070;14.492;2023-05-01T01:44:24;2.13;;;1.92;;
74152;SDS011;62505;46.070;14.492;2023-05-01T01:46:56;2.10;;;1.90;;
74152;SDS011;62505;46.070;14.492;2023-05-01T01:49:28;2.30;;;1.88;;
74152;SDS011;62505;46.070;14.492;2023-05-01T01:51:57;2.33;;;1.77;;
74152;SDS011;62505;46.070;14.492;2023-05-01T01:54:28;2.88;;;2.00;;
74152;SDS011;62505;46.070;14.492;2023-05-01T01:57:01;2.65;;;2.20;;
74152;SDS011;62505;46.070;14.492;2023-05-01T01:59:30;1.83;;;1.67;;
74152;SDS011;62505;46.070;14.492;2023-05-01T02:01:59;2.03;;;1.77;;
74152;SDS011;62505;46.070;14.492;2023-05-01T02:04:29;2.90;;;1.95;;
74152;SDS011;62505;46.070;14.492;2023-05-01T02:06:58;2.65;;;1.92;;
74152;SDS011;62505;46.070;14.492;2023-05-01T02:09:26;2.35;;;2.15;;
74152;SDS011;62505;46.070;14.492;2023-05-01T02:11:55;2.22;;;2.00;;
74152;SDS011;62505;46.070;14.492;2023-05-01T02:14:24;2.33;;;2.10;;
74152;SDS011;62505;46.070;14.492;2023-05-01T02:16:51;2.08;;;1.92;;
74152;SDS011;62505;46.070;14.492;2023-05-01T02:19:20;2.88;;;2.10;;
74152;SDS011;62505;46.070;14.492;2023-05-01T02:21:49;2.20;;;1.85;;
74152;SDS011;62505;46.070;14.492;2023-05-01T02:24:17;2.35;;;2.10;;
74152;SDS011;62505;46.070;14.492;2023-05-01T02:26:48;2.17;;;1.98;;
74152;SDS011;62505;46.070;14.492;2023-05-01T02:29:19;2.00;;;1.80;;
74152;SDS011;62505;46.070;14.492;2023-05-01T02:31:46;2.90;;;2.10;;
74152;SDS011;62505;46.070;14.492;2023-05-01T02:34:13;2.35;;;2.15;;
74152;SDS011;62505;46.070;14.492;2023-05-01T02:36:40;2.17;;;1.90;;
74152;SDS011;62505;46.070;14.492;2023-05-01T02:39:08;2.15;;;1.80;;
74152;SDS011;62505;46.070;14.492;2023-05-01T02:41:35;2.00;;;1.80;;
74152;SDS011;62505;46.070;14.492;2023-05-01T02:44:04;2.25;;;2.05;;
74152;SDS011;62505;46.070;14.492;2023-05-01T02:46:33;2.33;;;2.00;;
74152;SDS011;62505;46.070;14.492;2023-05-01T02:49:02;2.05;;;1.85;;
74152;SDS011;62505;46.070;14.492;2023-05-01T02:51:31;2.30;;;1.95;;
74152;SDS011;62505;46.070;14.492;2023-05-01T02:53:59;2.25;;;2.05;;
74152;SDS011;62505;46.070;14.492;2023-05-01T02:56:28;2.10;;;1.90;;
74152;SDS011;62505;46.070;14.492;2023-05-01T02:58:56;2.88;;;2.30;;
74152;SDS011;62505;46.070;14.492;2023-05-01T03:01:23;2.28;;;2.08;;
74152;SDS011;62505;46.070;14.492;2023-05-01T03:03:50;2.75;;;2.30;;
74152;SDS011;62505;46.070;14.492;2023-05-01T03:06:17;2.70;;;2.28;;
74152;SDS011;62505;46.070;14.492;2023-05-01T03:08:44;2.10;;;1.90;;
74152;SDS011;62505;46.070;14.492;2023-05-01T03:11:11;2.30;;;2.10;;
74152;SDS011;62505;46.070;14.492;2023-05-01T03:13:40;2.40;;;2.20;;
74152;SDS011;62505;46.070;14.492;2023-05-01T03:16:07;2.60;;;2.22;;
74152;SDS011;62505;46.070;14.492;2023-05-01T03:18:34;2.35;;;2.10;;
74152;SDS011;62505;46.070;14.492;2023-05-01T03:21:01;2.47;;;2.28;;
74152;SDS011;62505;46.070;14.492;2023-05-01T03:23:28;2.60;;;2.10;;
74152;SDS011;62505;46.070;14.492;2023-05-01T03:25:55;2.65;;;2.20;;
74152;SDS011;62505;46.070;14.492;2023-05-01T03:28:23;2.05;;;1.85;;
74152;SDS011;62505;46.070;14.492;2023-05-01T03:30:51;2.45;;;2.13;;
74152;SDS011;62505;46.070;14.492;2023-05-01T03:33:18;2.45;;;2.22;;
74152;SDS011;62505;46.070;14.492;2023-05-01T03:35:45;2.33;;;2.13;;
74152;SDS011;62505;46.070;14.492;2023-05-01T03:38:12;2.22;;;2.05;;
74152;SDS011;62505;46.070;14.492;2023-05-01T03:40:39;2.25;;;2.05;;
74152;SDS011;62505;46.070;14.492;2023-05-01T03:43:05;2.20;;;2.00;;
74152;SDS011;62505;46.070;14.492;2023-05-01T03:45:32;2.38;;;2.17;;
74152;SDS011;62505;46.070;14.492;2023-05-01T03:48:01;2.85;;;2.35;;
74152;SDS011;62505;46.070;14.492;2023-05-01T03:50:27;2.30;;;2.05;;
74152;SDS011;62505;46.070;14.492;2023-05-01T03:52:54;2.70;;;2.22;;
74152;SDS011;62505;46.070;14.492;2023-05-01T03:55:21;2.45;;;2.10;;
74152;SDS011;62505;46.070;14.492;2023-05-01T03:57:48;2.38;;;1.98;;
74152;SDS011;62505;46.070;14.492;2023-05-01T04:00:16;2.60;;;2.38;;
74152;SDS011;62505;46.070;14.492;2023-05-01T04:02:43;2.70;;;2.40;;
74152;SDS011;62505;46.070;14.492;2023-05-01T04:05:13;2.65;;;2.28;;
74152;SDS011;62505;46.070;14.492;2023-05-01T04:07:40;1.92;;;1.73;;
74152;SDS011;62505;46.070;14.492;2023-05-01T04:10:07;2.58;;;2.17;;
74152;SDS011;62505;46.070;14.492;2023-05-01T04:12:34;3.13;;;2.30;;
74152;SDS011;62505;46.070;14.492;2023-05-01T04:15:01;2.45;;;2.15;;
74152;SDS011;62505;46.070;14.492;2023-05-01T04:17:28;2.50;;;2.30;;
74152;SDS011;62505;46.070;14.492;2023-05-01T04:19:55;2.55;;;2.33;;
74152;SDS011;62505;46.070;14.492;2023-05-01T04:22:24;2.50;;;2.08;;
74152;SDS011;62505;46.070;14.492;2023-05-01T04:24:51;2.47;;;2.28;;
74152;SDS011;62505;46.070;14.492;2023-05-01T04:27:18;2.50;;;2.15;;
74152;SDS011;62505;46.070;14.492;2023-05-01T04:29:45;3.00;;;2.58;;
74152;SDS011;62505;46.070;14.492;2023-05-01T04:32:12;3.30;;;2.50;;
74152;SDS011;62505;46.070;14.492;2023-05-01T04:34:39;2.55;;;2.33;;
74152;SDS011;62505;46.070;14.492;2023-05-01T04:37:06;2.40;;;2.20;;
74152;SDS011;62505;46.070;14.492;2023-05-01T04:39:34;2.60;;;2.13;;
74152;SDS011;62505;46.070;14.492;2023-05-01T04:42:01;2.85;;;2.50;;
74152;SDS011;62505;46.070;14.492;2023-05-01T04:44:28;2.60;;;2.22;;
74152;SDS011;62505;46.070;14.492;2023-05-01T04:46:58;2.38;;;2.17;;
74152;SDS011;62505;46.070;14.492;2023-05-01T04:49:26;2.35;;;2.10;;
74152;SDS011;62505;46.070;14.492;2023-05-01T04:51:53;2.72;;;2.38;;
74152;SDS011;62505;46.070;14.492;2023-05-01T04:54:20;2.70;;;2.38;;
74152;SDS011;62505;46.070;14.492;2023-05-01T04:56:48;3.08;;;2.45;;
74152;SDS011;62505;46.070;14.492;2023-05-01T04:59:15;2.90;;;2.58;;
74152;SDS011;62505;46.070;14.492;2023-05-01T05:01:42;2.47;;;2.25;;
74152;SDS011;62505;46.070;14.492;2023-05-01T05:04:09;2.50;;;2.30;;
74152;SDS011;62505;46.070;14.492;2023-05-01T05:06:36;2.05;;;1.92;;
74152;SDS011;62505;46.070;14.492;2023-05-01T05:09:03;2.67;;;2.38;;
74152;SDS011;62505;46.070;14.492;2023-05-01T05:11:30;2.72;;;2.03;;
74152;SDS011;62505;46.070;14.492;2023-05-01T05:13:58;2.35;;;1.88;;
74152;SDS011;62505;46.070;14.492;2023-05-01T05:16:25;2.65;;;2.15;;
74152;SDS011;62505;46.070;14.492;2023-05-01T05:18:53;2.80;;;2.50;;
74152;SDS011;62505;46.070;14.492;2023-05-01T05:21:21;2.63;;;2.13;;
74152;SDS011;62505;46.070;14.492;2023-05-01T05:23:48;3.08;;;2.78;;
74152;SDS011;62505;46.070;14.492;2023-05-01T05:26:14;2.40;;;2.15;;
74152;SDS011;62505;46.070;14.492;2023-05-01T05:28:42;3.10;;;2.58;;
74152;SDS011;62505;46.070;14.492;2023-05-01T05:31:10;2.85;;;2.45;;
74152;SDS011;62505;46.070;14.492;2023-05-01T05:33:37;2.45;;;2.22;;
74152;SDS011;62505;46.070;14.492;2023-05-01T05:36:04;2.40;;;2.13;;
74152;SDS011;62505;46.070;14.492;2023-05-01T05:38:31;2.70;;;2.50;;
74152;SDS011;62505;46.070;14.492;2023-05-01T05:40:58;2.50;;;2.30;;
74152;SDS011;62505;46.070;14.492;2023-05-01T05:43:25;2.45;;;2.25;;
74152;SDS011;62505;46.070;14.492;2023-05-01T05:45:55;2.60;;;2.03;;
74152;SDS011;62505;46.070;14.492;2023-05-01T05:48:23;3.72;;;2.45;;
74152;SDS011;62505;46.070;14.492;2023-05-01T05:50:50;2.75;;;2.40;;
74152;SDS011;62505;46.070;14.492;2023-05-01T05:53:17;2.45;;;2.25;;
74152;SDS011;62505;46.070;14.492;2023-05-01T05:55:45;3.53;;;2.67;;
74152;SDS011;62505;46.070;14.492;2023-05-01T05:58:12;2.63;;;2.42;;
74152;SDS011;62505;46.070;14.492;2023-05-01T06:00:43;2.50;;;2.30;;
74152;SDS011;62505;46.070;14.492;2023-05-01T06:03:11;2.25;;;2.05;;
74152;SDS011;62505;46.070;14.492;2023-05-01T06:05:39;2.72;;;2.50;;
74152;SDS011;62505;46.070;14.492;2023-05-01T06:08:07;2.55;;;2.33;;
74152;SDS011;62505;46.070;14.492;2023-05-01T06:10:35;2.88;;;2.55;;
74152;SDS011;62505;46.070;14.492;2023-05-01T06:13:03;3.40;;;2.80;;
74152;SDS011;62505;46.070;14.492;2023-05-01T06:15:31;2.38;;;2.17;;
74152;SDS011;62505;46.070;14.492;2023-05-01T06:17:58;3.08;;;2.40;;
74152;SDS011;62505;46.070;14.492;2023-05-01T06:20:25;2.65;;;2.38;;
74152;SDS011;62505;46.070;14.492;2023-05-01T06:22:53;2.70;;;2.50;;
74152;SDS011;62505;46.070;14.492;2023-05-01T06:25:20;2.75;;;2.53;;
74152;SDS011;62505;46.070;14.492;2023-05-01T06:27:48;2.50;;;2.30;;
74152;SDS011;62505;46.070;14.492;2023-05-01T06:30:14;3.40;;;2.70;;
74152;SDS011;62505;46.070;14.492;2023-05-01T06:32:43;3.13;;;2.35;;
74152;SDS011;62505;46.070;14.492;2023-05-01T06:35:10;2.90;;;2.60;;
74152;SDS011;62505;46.070;14.492;2023-05-01T06:37:37;2.97;;;2.63;;
74152;SDS011;62505;46.070;14.492;2023-05-01T06:40:06;3.13;;;2.60;;
74152;SDS011;62505;46.070;14.492;2023-05-01T06:42:34;2.67;;;2.47;;
74152;SDS011;62505;46.070;14.492;2023-05-01T06:45:01;3.10;;;2.75;;
74152;SDS011;62505;46.070;14.492;2023-05-01T06:47:28;3.72;;;3.10;;
74152;SDS011;62505;46.070;14.492;2023-05-01T06:49:55;2.75;;;2.47;;
74152;SDS011;62505;46.070;14.492;2023-05-01T06:52:22;2.75;;;2.47;;
74152;SDS011;62505;46.070;14.492;2023-05-01T06:54:49;3.13;;;2.83;;
74152;SDS011;62505;46.070;14.492;2023-05-01T06:57:17;2.40;;;2.20;;
74152;SDS011;62505;46.070;14.492;2023-05-01T06:59:44;2.95;;;2.65;;
74152;SDS011;62505;46.070;14.492;2023-05-01T07:02:11;3.33;;;2.72;;
74152;SDS011;62505;46.070;14.492;2023-05-01T07:04:38;2.63;;;2.42;;
74152;SDS011;62505;46.070;14.492;2023-05-01T07:07:05;2.58;;;2.35;;
74152;SDS011;62505;46.070;14.492;2023-05-01T07:09:32;3.17;;;2.65;;
74152;SDS011;62505;46.070;14.492;2023-05-01T07:12:00;2.75;;;2.45;;
74152;SDS011;62505;46.070;14.492;2023-05-01T07:14:29;2.65;;;2.38;;
74152;SDS011;62505;46.070;14.492;2023-05-01T07:16:55;3.22;;;2.45;;
74152;SDS011;62505;46.070;14.492;2023-05-01T07:19:22;2.58;;;2.38;;
74152;SDS011;62505;46.070;14.492;2023-05-01T07:21:50;2.65;;;2.15;;
74152;SDS011;62505;46.070;14.492;2023-05-01T07:24:17;2.80;;;2.50;;
74152;SDS011;62505;46.070;14.492;2023-05-01T07:26:44;2.90;;;2.60;;
74152;SDS011;62505;46.070;14.492;2023-05-01T07:29:11;2.70;;;2.50;;
74152;SDS011;62505;46.070;14.492;2023-05-01T07:31:41;2.63;;;2.40;;
74152;SDS011;62505;46.070;14.492;2023-05-01T07:34:08;3.38;;;2.45;;
74152;SDS011;62505;46.070;14.492;2023-05-01T07:36:35;3.17;;;2.88;;
74152;SDS011;62505;46.070;14.492;2023-05-01T07:39:02;3.05;;;2.65;;
74152;SDS011;62505;46.070;14.492;2023-05-01T07:41:30;2.80;;;2.20;;
74152;SDS011;62505;46.070;14.492;2023-05-01T07:43:57;3.30;;;2.70;;
74152;SDS011;62505;46.070;14.492;2023-05-01T07:46:24;2.67;;;2.45;;
74152;SDS011;62505;46.070;14.492;2023-05-01T07:48:53;2.90;;;2.67;;
74152;SDS011;62505;46.070;14.492;2023-05-01T07:51:20;2.92;;;2.55;;
74152;SDS011;62505;46.070;14.492;2023-05-01T07:53:47;2.78;;;2.47;;
74152;SDS011;62505;46.070;14.492;2023-05-01T07:56:14;2.80;;;2.47;;
74152;SDS011;62505;46.070;14.492;2023-05-01T07:58:41;2.75;;;2.45;;
74152;SDS011;62505;46.070;14.492;2023-05-01T08:01:08;3.85;;;2.92;;
74152;SDS011;62505;46.070;14.492;2023-05-01T08:03:35;2.60;;;2.38;;
74152;SDS011;62505;46.070;14.492;2023-05-01T08:06:04;2.92;;;2.70;;
74152;SDS011;62505;46.070;14.492;2023-05-01T08:08:31;2.85;;;2.50;;
74152;SDS011;62505;46.070;14.492;2023-05-01T08:10:58;3.08;;;2.78;;
74152;SDS011;62505;46.070;14.492;2023-05-01T08:13:25;3.00;;;2.72;;
74152;SDS011;62505;46.070;14.492;2023-05-01T08:15:52;2.88;;;2.47;;
74152;SDS011;62505;46.070;14.492;2023-05-01T08:18:19;2.55;;;2.35;;
74152;SDS011;62505;46.070;14.492;2023-05-01T08:20:46;2.60;;;2.30;;
74152;SDS011;62505;46.070;14.492;2023-05-01T08:23:15;3.55;;;2.78;;
74152;SDS011;62505;46.070;14.492;2023-05-01T08:25:42;3.30;;;2.58;;
74152;SDS011;62505;46.070;14.492;2023-05-01T08:28:11;2.80;;;2.42;;
74152;SDS011;62505;46.070;14.492;2023-05-01T08:30:38;2.72;;;2.50;;
74152;SDS011;62505;46.070;14.492;2023-05-01T08:33:05;2.63;;;2.35;;
74152;SDS011;62505;46.070;14.492;2023-05-01T08:35:32;2.72;;;2.47;;
74152;SDS011;62505;46.070;14.492;2023-05-01T08:37:58;3.20;;;2.70;;
74152;SDS011;62505;46.070;14.492;2023-05-01T08:40:30;3.47;;;2.58;;
74152;SDS011;62505;46.070;14.492;2023-05-01T08:42:59;3.38;;;2.90;;
74152;SDS011;62505;46.070;14.492;2023-05-01T08:45:26;2.95;;;2.60;;
74152;SDS011;62505;46.070;14.492;2023-05-01T08:47:55;3.33;;;2.63;;
74152;SDS011;62505;46.070;14.492;2023-05-01T08:50:25;3.22;;;2.60;;
74152;SDS011;62505;46.070;14.492;2023-05-01T08:52:53;3.08;;;2.78;;
74152;SDS011;62505;46.070;14.492;2023-05-01T08:55:23;2.90;;;2.60;;
74152;SDS011;62505;46.070;14.492;2023-05-01T08:57:52;3.13;;;2.83;;
74152;SDS011;62505;46.070;14.492;2023-05-01T09:00:20;2.92;;;2.45;;
74152;SDS011;62505;46.070;14.492;2023-05-01T09:02:48;3.28;;;2.67;;
74152;SDS011;62505;46.070;14.492;2023-05-01T09:05:16;3.50;;;2.40;;
74152;SDS011;62505;46.070;14.492;2023-05-01T09:07:44;3.13;;;2.80;;
74152;SDS011;62505;46.070;14.492;2023-05-01T09:10:12;3.28;;;2.97;;
74152;SDS011;62505;46.070;14.492;2023-05-01T09:12:41;3.13;;;2.83;;
74152;SDS011;62505;46.070;14.492;2023-05-01T09:15:13;3.60;;;2.72;;
74152;SDS011;62505;46.070;14.492;2023-05-01T09:17:40;4.07;;;2.38;;
74152;SDS011;62505;46.070;14.492;2023-05-01T09:20:09;2.17;;;1.98;;
74152;SDS011;62505;46.070;14.492;2023-05-01T09:22:36;3.15;;;2.65;;
74152;SDS011;62505;46.070;14.492;2023-05-01T09:25:03;3.40;;;3.00;;
74152;SDS011;62505;46.070;14.492;2023-05-01T09:27:32;3.17;;;2.88;;
74152;SDS011;62505;46.070;14.492;2023-05-01T09:30:00;3.15;;;2.80;;
74152;SDS011;62505;46.070;14.492;2023-05-01T09:32:28;3.10;;;2.80;;
74152;SDS011;62505;46.070;14.492;2023-05-01T09:35:07;2.58;;;2.33;;
74152;SDS011;62505;46.070;14.492;2023-05-01T09:37:35;2.63;;;2.38;;
74152;SDS011;62505;46.070;14.492;2023-05-01T09:40:03;2.80;;;2.42;;
74152;SDS011;62505;46.070;14.492;2023-05-01T09:42:31;2.80;;;2.60;;
74152;SDS011;62505;46.070;14.492;2023-05-01T09:44:58;3.00;;;2.70;;
74152;SDS011;62505;46.070;14.492;2023-05-01T09:47:26;3.53;;;3.05;;
74152;SDS011;62505;46.070;14.492;2023-05-01T09:49:55;2.95;;;2.50;;
74152;SDS011;62505;46.070;14.492;2023-05-01T09:52:24;3.60;;;2.83;;
74152;SDS011;62505;46.070;14.492;2023-05-01T09:57:38;2.97;;;2.42;;
74152;SDS011;62505;46.070;14.492;2023-05-01T10:00:07;2.80;;;2.50;;
74152;SDS011;62505;46.070;14.492;2023-05-01T10:02:35;3.03;;;2.72;;
74152;SDS011;62505;46.070;14.492;2023-05-01T10:05:03;2.60;;;2.30;;
74152;SDS011;62505;46.070;14.492;2023-05-01T10:07:31;2.90;;;2.60;;
74152;SDS011;62505;46.070;14.492;2023-05-01T10:09:58;3.10;;;2.80;;
74152;SDS011;62505;46.070;14.492;2023-05-01T10:12:41;3.13;;;2.83;;
74152;SDS011;62505;46.070;14.492;2023-05-01T10:15:08;3.05;;;2.42;;
74152;SDS011;62505;46.070;14.492;2023-05-01T10:17:35;2.95;;;2.65;;
74152;SDS011;62505;46.070;14.492;2023-05-01T10:20:05;2.67;;;2.47;;
74152;SDS011;62505;46.070;14.492;2023-05-01T10:22:33;3.05;;;2.67;;
74152;SDS011;62505;46.070;14.492;2023-05-01T10:25:00;2.60;;;2.40;;
74152;SDS011;62505;46.070;14.492;2023-05-01T10:27:28;2.88;;;2.60;;
74152;SDS011;62505;46.070;14.492;2023-05-01T10:29:55;2.63;;;2.42;;
74152;SDS011;62505;46.070;14.492;2023-05-01T10:32:23;3.00;;;2.70;;
74152;SDS011;62505;46.070;14.492;2023-05-01T10:34:50;3.03;;;2.55;;
74152;SDS011;62505;46.070;14.492;2023-05-01T10:37:23;2.63;;;2.42;;
74152;SDS011;62505;46.070;14.492;2023-05-01T10:39:54;2.80;;;2.50;;
74152;SDS011;62505;46.070;14.492;2023-05-01T10:42:22;2.65;;;2.45;;
74152;SDS011;62505;46.070;14.492;2023-05-01T10:44:50;2.67;;;2.47;;
74152;SDS011;62505;46.070;14.492;2023-05-01T10:50:11;3.85;;;2.40;;
74152;SDS011;62505;46.070;14.492;2023-05-01T10:55:46;2.97;;;2.70;;
74152;SDS011;62505;46.070;14.492;2023-05-01T10:58:53;2.95;;;2.65;;
74152;SDS011;62505;46.070;14.492;2023-05-01T11:01:26;3.05;;;2.40;;
74152;SDS011;62505;46.070;14.492;2023-05-01T11:03:54;3.95;;;2.67;;
74152;SDS011;62505;46.070;14.492;2023-05-01T11:06:21;3.03;;;2.75;;
74152;SDS011;62505;46.070;14.492;2023-05-01T11:08:50;3.45;;;2.75;;
74152;SDS011;62505;46.070;14.492;2023-05-01T11:14:16;3.00;;;2.70;;
74152;SDS011;62505;46.070;14.492;2023-05-01T11:16:43;2.92;;;2.63;;
74152;SDS011;62505;46.070;14.492;2023-05-01T11:22:14;3.22;;;2.80;;
74152;SDS011;62505;46.070;14.492;2023-05-01T11:24:42;3.10;;;2.80;;
74152;SDS011;62505;46.070;14.492;2023-05-01T11:27:13;2.97;;;2.67;;
74152;SDS011;62505;46.070;14.492;2023-05-01T11:29:40;2.88;;;2.58;;
74152;SDS011;62505;46.070;14.492;2023-05-01T11:32:14;3.15;;;2.67;;
74152;SDS011;62505;46.070;14.492;2023-05-01T11:34:48;3.13;;;2.75;;
74152;SDS011;62505;46.070;14.492;2023-05-01T11:37:16;3.53;;;2.85;;
74152;SDS011;62505;46.070;14.492;2023-05-01T11:39:48;2.40;;;2.20;;
74152;SDS011;62505;46.070;14.492;2023-05-01T11:42:16;2.90;;;2.58;;
74152;SDS011;62505;46.070;14.492;2023-05-01T11:47:31;3.33;;;2.83;;
74152;SDS011;62505;46.070;14.492;2023-05-01T11:52:25;3.53;;;2.78;;
74152;SDS011;62505;46.070;14.492;2023-05-01T11:54:53;2.42;;;2.20;;
74152;SDS011;62505;46.070;14.492;2023-05-01T11:57:20;2.83;;;2.53;;
74152;SDS011;62505;46.070;14.492;2023-05-01T11:59:47;2.45;;;2.25;;
74152;SDS011;62505;46.070;14.492;2023-05-01T12:02:18;3.03;;;2.72;;
74152;SDS011;62505;46.070;14.492;2023-05-01T12:04:45;2.90;;;2.63;;
74152;SDS011;62505;46.070;14.492;2023-05-01T12:07:19;3.17;;;2.70;;
74152;SDS011;62505;46.070;14.492;2023-05-01T12:09:46;2.60;;;2.40;;
74152;SDS011;62505;46.070;14.492;2023-05-01T12:12:15;2.75;;;2.55;;
74152;SDS011;62505;46.070;14.492;2023-05-01T12:14:43;2.85;;;2.47;;
74152;SDS011;62505;46.070;14.492;2023-05-01T12:17:10;2.97;;;2.72;;
74152;SDS011;62505;46.070;14.492;2023-05-01T12:19:44;2.97;;;2.67;;
74152;SDS011;62505;46.070;14.492;2023-05-01T12:22:13;3.08;;;2.78;;
74152;SDS011;62505;46.070;14.492;2023-05-01T12:24:47;3.03;;;2.70;;
74152;SDS011;62505;46.070;14.492;2023-05-01T12:27:17;2.65;;;2.40;;
74152;SDS011;62505;46.070;14.492;2023-05-01T12:29:44;2.80;;;2.55;;
74152;SDS011;62505;46.070;14.492;2023-05-01T12:32:12;2.80;;;2.50;;
74152;SDS011;62505;46.070;14.492;2023-05-01T12:34:41;2.63;;;2.42;;
74152;SDS011;62505;46.070;14.492;2023-05-01T12:37:08;2.85;;;2.55;;
74152;SDS011;62505;46.070;14.492;2023-05-01T12:39:35;2.90;;;2.38;;
74152;SDS011;62505;46.070;14.492;2023-05-01T12:42:10;3.05;;;2.30;;
74152;SDS011;62505;46.070;14.492;2023-05-01T12:44:39;3.00;;;2.60;;
74152;SDS011;62505;46.070;14.492;2023-05-01T12:47:08;2.97;;;2.67;;
74152;SDS011;62505;46.070;14.492;2023-05-01T12:49:35;2.70;;;2.30;;
74152;SDS011;62505;46.070;14.492;2023-05-01T12:52:03;2.75;;;2.50;;
74152;SDS011;62505;46.070;14.492;2023-05-01T12:54:31;2.88;;;2.55;;
74152;SDS011;62505;46.070;14.492;2023-05-01T12:57:05;2.85;;;2.55;;
74152;SDS011;62505;46.070;14.492;2023-05-01T12:59:33;2.35;;;2.15;;
74152;SDS011;62505;46.070;14.492;2023-05-01T13:02:04;2.85;;;2.50;;
74152;SDS011;62505;46.070;14.492;2023-05-01T13:04:32;2.97;;;2.60;;
74152;SDS011;62505;46.070;14.492;2023-05-01T13:07:00;2.90;;;2.60;;
74152;SDS011;62505;46.070;14.492;2023-05-01T13:09:27;2.97;;;2.50;;
74152;SDS011;62505;46.070;14.492;2023-05-01T13:11:56;2.80;;;2.60;;
74152;SDS011;62505;46.070;14.492;2023-05-01T13:14:29;2.90;;;2.58;;
74152;SDS011;62505;46.070;14.492;2023-05-01T13:17:03;2.70;;;2.50;;
74152;SDS011;62505;46.070;14.492;2023-05-01T13:19:31;3.20;;;2.40;;
74152;SDS011;62505;46.070;14.492;2023-05-01T13:21:58;3.67;;;2.90;;
74152;SDS011;62505;46.070;14.492;2023-05-01T13:24:34;2.72;;;2.35;;
74152;SDS011;62505;46.070;14.492;2023-05-01T13:27:02;2.58;;;2.28;;
74152;SDS011;62505;46.070;14.492;2023-05-01T13:29:29;2.92;;;2.50;;
74152;SDS011;62505;46.070;14.492;2023-05-01T13:31:57;2.60;;;2.40;;
74152;SDS011;62505;46.070;14.492;2023-05-01T13:34:27;3.97;;;2.40;;
74152;SDS011;62505;46.070;14.492;2023-05-01T13:36:55;2.85;;;2.55;;
74152;SDS011;62505;46.070;14.492;2023-05-01T13:39:22;2.80;;;2.50;;
74152;SDS011;62505;46.070;14.492;2023-05-01T13:41:50;2.72;;;2.40;;
74152;SDS011;62505;46.070;14.492;2023-05-01T13:44:18;3.20;;;2.90;;
74152;SDS011;62505;46.070;14.492;2023-05-01T13:46:46;2.63;;;2.40;;
74152;SDS011;62505;46.070;14.492;2023-05-01T13:49:13;2.88;;;2.55;;
74152;SDS011;62505;46.070;14.492;2023-05-01T13:51:45;2.45;;;2.25;;
74152;SDS011;62505;46.070;14.492;2023-05-01T13:54:12;2.65;;;2.45;;
74152;SDS011;62505;46.070;14.492;2023-05-01T13:56:40;2.75;;;2.53;;
74152;SDS011;62505;46.070;14.492;2023-05-01T13:59:07;2.63;;;2.13;;
74152;SDS011;62505;46.070;14.492;2023-05-01T14:01:36;3.00;;;2.60;;
74152;SDS011;62505;46.070;14.492;2023-05-01T14:04:07;2.60;;;2.40;;
74152;SDS011;62505;46.070;14.492;2023-05-01T14:06:37;2.58;;;2.38;;
74152;SDS011;62505;46.070;14.492;2023-05-01T14:09:08;2.78;;;2.58;;
74152;SDS011;62505;46.070;14.492;2023-05-01T14:11:40;2.72;;;2.42;;
74152;SDS011;62505;46.070;14.492;2023-05-01T14:14:10;2.90;;;2.60;;
74152;SDS011;62505;46.070;14.492;2023-05-01T14:16:40;2.53;;;2.33;;
74152;SDS011;62505;46.070;14.492;2023-05-01T14:19:07;2.63;;;2.28;;
74152;SDS011;62505;46.070;14.492;2023-05-01T14:21:37;2.80;;;2.38;;
74152;SDS011;62505;46.070;14.492;2023-05-01T14:24:06;2.63;;;2.30;;
74152;SDS011;62505;46.070;14.492;2023-05-01T14:26:35;3.10;;;2.80;;
74152;SDS011;62505;46.070;14.492;2023-05-01T14:29:03;2.97;;;2.50;;
74152;SDS011;62505;46.070;14.492;2023-05-01T14:31:31;3.00;;;2.50;;
74152;SDS011;62505;46.070;14.492;2023-05-01T14:33:58;2.60;;;2.40;;
74152;SDS011;62505;46.070;14.492;2023-05-01T14:36:27;2.50;;;2.30;;
74152;SDS011;62505;46.070;14.492;2023-05-01T14:38:56;2.22;;;2.03;;
74152;SDS011;62505;46.070;14.492;2023-05-01T14:41:25;2.90;;;2.60;;
74152;SDS011;62505;46.070;14.492;2023-05-01T14:43:53;2.45;;;2.25;;
74152;SDS011;62505;46.070;14.492;2023-05-01T14:46:26;2.90;;;2.40;;
74152;SDS011;62505;46.070;14.492;2023-05-01T14:48:54;2.55;;;2.35;;
74152;SDS011;62505;46.070;14.492;2023-05-01T14:51:21;2.60;;;2.40;;
74152;SDS011;62505;46.070;14.492;2023-05-01T14:53:49;2.95;;;2.33;;
74152;SDS011;62505;46.070;14.492;2023-05-01T14:56:17;2.40;;;2.20;;
74152;SDS011;62505;46.070;14.492;2023-05-01T14:58:45;2.78;;;2.55;;
74152;SDS011;62505;46.070;14.492;2023-05-01T15:01:12;3.13;;;2.53;;
74152;SDS011;62505;46.070;14.492;2023-05-01T15:03:39;2.63;;;2.42;;